createdAt,value
2022-08-25T00:02:04.784Z,28.29
2022-08-25T00:04:33.774Z,28.31
2022-08-25T00:07:04.030Z,28.31
2022-08-25T00:09:32.474Z,28.30
2022-08-25T00:11:59.710Z,28.31
2022-08-25T00:14:35.139Z,28.32
2022-08-25T00:17:01.859Z,28.30
2022-08-25T00:19:33.785Z,28.29
2022-08-25T00:22:01.424Z,28.32
2022-08-25T00:24:28.722Z,28.34
2022-08-25T00:26:57.603Z,28.32
2022-08-25T00:29:26.544Z,28.34
2022-08-25T00:31:53.936Z,28.33
2022-08-25T00:34:24.503Z,28.32
2022-08-25T00:36:51.810Z,28.31
2022-08-25T00:39:21.111Z,28.31
2022-08-25T00:41:50.563Z,28.30
2022-08-25T00:44:18.442Z,28.31
2022-08-25T00:46:51.262Z,28.28
2022-08-25T00:49:24.856Z,28.28
2022-08-25T00:52:02.633Z,28.28
2022-08-25T00:54:35.700Z,28.27
2022-08-25T00:57:04.913Z,28.26
2022-08-25T00:59:31.754Z,28.23
2022-08-25T01:01:59.532Z,28.25
2022-08-25T01:04:26.788Z,28.20
2022-08-25T01:06:55.651Z,28.20
2022-08-25T01:09:22.977Z,28.23
2022-08-25T01:11:49.592Z,28.20
2022-08-25T01:14:20.171Z,28.20
2022-08-25T01:16:47.184Z,28.14
2022-08-25T01:19:17.936Z,28.11
2022-08-25T01:21:48.749Z,28.08
2022-08-25T01:24:28.551Z,28.04
2022-08-25T01:26:55.110Z,27.96
2022-08-25T01:29:21.693Z,27.91
2022-08-25T01:32:10.897Z,27.83
2022-08-25T01:34:40.982Z,27.78
2022-08-25T01:37:09.689Z,27.72
2022-08-25T01:39:41.741Z,27.69
2022-08-25T01:42:11.431Z,27.67
2022-08-25T01:44:41.720Z,27.62
2022-08-25T01:47:08.804Z,27.62
2022-08-25T01:49:36.040Z,27.61
2022-08-25T01:52:15.047Z,27.61
2022-08-25T01:54:41.628Z,27.62
2022-08-25T01:57:09.071Z,27.63
2022-08-25T01:59:35.658Z,27.59
2022-08-25T02:02:02.544Z,27.58
2022-08-25T02:04:32.647Z,27.56
2022-08-25T02:07:05.411Z,27.55
2022-08-25T02:09:32.600Z,27.52
2022-08-25T02:11:59.608Z,27.50
2022-08-25T02:14:26.251Z,27.49
2022-08-25T02:16:54.871Z,27.46
2022-08-25T02:19:24.314Z,27.42
2022-08-25T02:21:50.888Z,27.38
2022-08-25T02:24:17.899Z,27.37
2022-08-25T02:26:44.754Z,27.35
2022-08-25T02:29:12.161Z,27.31
2022-08-25T02:31:39.753Z,27.29
2022-08-25T02:34:06.896Z,27.22
2022-08-25T02:36:33.564Z,27.18
2022-08-25T02:39:00.609Z,27.15
2022-08-25T02:41:31.043Z,27.11
2022-08-25T02:43:58.620Z,27.08
2022-08-25T02:46:25.272Z,27.04
2022-08-25T02:48:52.934Z,26.98
2022-08-25T02:51:22.007Z,26.96
2022-08-25T02:53:48.868Z,26.91
2022-08-25T02:56:18.224Z,26.91
2022-08-25T02:58:45.941Z,26.86
2022-08-25T03:01:14.068Z,26.87
2022-08-25T03:03:43.511Z,26.86
2022-08-25T03:06:15.662Z,26.80
2022-08-25T03:08:43.412Z,26.77
2022-08-25T03:11:10.342Z,26.78
2022-08-25T03:13:37.613Z,26.73
2022-08-25T03:16:06.023Z,26.74
2022-08-25T03:18:39.113Z,26.71
2022-08-25T03:21:05.687Z,26.71
2022-08-25T03:23:32.484Z,26.69
2022-08-25T03:26:17.829Z,26.65
2022-08-25T03:28:44.452Z,26.61
2022-08-25T03:31:11.193Z,26.60
2022-08-25T03:33:38.425Z,26.59
2022-08-25T03:36:06.019Z,26.57
2022-08-25T03:38:32.600Z,26.52
2022-08-25T03:40:59.155Z,26.52
2022-08-25T03:43:25.649Z,26.51
2022-08-25T03:45:52.211Z,26.49
2022-08-25T03:48:19.848Z,26.51
2022-08-25T03:50:50.605Z,26.52
2022-08-25T03:53:19.376Z,26.48
2022-08-25T03:55:45.975Z,26.49
2022-08-25T03:58:12.673Z,26.48
2022-08-25T04:00:39.264Z,26.48
2022-08-25T04:03:06.068Z,26.49
2022-08-25T04:05:33.102Z,26.50
2022-08-25T04:08:01.893Z,26.49
2022-08-25T04:10:29.090Z,26.48
2022-08-25T04:12:56.126Z,26.43
2022-08-25T04:15:30.126Z,26.43
2022-08-25T04:17:58.854Z,26.43
2022-08-25T04:20:25.623Z,26.41
2022-08-25T04:22:52.141Z,26.32
2022-08-25T04:25:18.646Z,26.33
2022-08-25T04:27:45.143Z,26.31
2022-08-25T04:30:12.349Z,26.27
2022-08-25T04:32:39.005Z,26.24
2022-08-25T04:35:05.998Z,26.17
2022-08-25T04:37:33.380Z,26.23
2022-08-25T04:40:00.366Z,26.23
2022-08-25T04:42:27.305Z,26.23
2022-08-25T04:44:54.635Z,26.24
2022-08-25T04:47:22.225Z,26.26
2022-08-25T04:49:48.831Z,26.25
2022-08-25T04:52:15.406Z,26.30
2022-08-25T04:54:42.873Z,26.28
2022-08-25T04:57:09.930Z,26.30
2022-08-25T04:59:36.623Z,26.30
2022-08-25T05:02:05.156Z,26.26
2022-08-25T05:04:33.642Z,26.28
2022-08-25T05:07:00.647Z,26.23
2022-08-25T05:09:27.619Z,26.18
2022-08-25T05:11:55.326Z,26.20
2022-08-25T05:14:25.706Z,26.19
2022-08-25T05:16:54.802Z,26.25
2022-08-25T05:19:23.888Z,26.27
2022-08-25T05:21:50.502Z,26.29
2022-08-25T05:24:17.268Z,26.29
2022-08-25T05:26:43.804Z,26.30
2022-08-25T05:29:11.029Z,26.26
2022-08-25T05:31:42.379Z,26.25
2022-08-25T05:34:12.082Z,26.25
2022-08-25T05:36:43.153Z,26.20
2022-08-25T05:39:10.785Z,26.19
2022-08-25T05:41:37.875Z,26.22
2022-08-25T05:44:04.925Z,26.25
2022-08-25T05:46:31.956Z,26.27
2022-08-25T05:48:59.100Z,26.31
2022-08-25T05:51:26.282Z,26.36
2022-08-25T05:53:52.927Z,26.36
2022-08-25T05:56:20.006Z,26.38
2022-08-25T05:58:47.227Z,26.37
2022-08-25T06:01:46.692Z,26.38
2022-08-25T06:04:15.354Z,26.36
2022-08-25T06:06:42.001Z,26.36
2022-08-25T06:09:09.654Z,26.36
2022-08-25T06:11:37.968Z,26.35
2022-08-25T06:14:04.807Z,26.33
2022-08-25T06:16:31.671Z,26.32
2022-08-25T06:18:58.289Z,26.34
2022-08-25T06:21:25.285Z,26.35
2022-08-25T06:23:52.808Z,26.30
2022-08-25T06:26:21.108Z,26.34
2022-08-25T06:28:51.079Z,26.31
2022-08-25T06:31:19.209Z,26.25
2022-08-25T06:33:46.335Z,26.26
2022-08-25T06:36:12.928Z,26.24
2022-08-25T06:38:39.571Z,26.23
2022-08-25T06:41:07.978Z,26.26
2022-08-25T06:43:35.051Z,26.23
2022-08-25T06:46:09.576Z,26.24
2022-08-25T06:48:36.156Z,26.24
2022-08-25T06:51:09.272Z,26.25
2022-08-25T06:53:40.836Z,26.25
2022-08-25T06:56:07.601Z,26.30
2022-08-25T06:58:34.261Z,26.34
2022-08-25T07:01:19.671Z,26.41
2022-08-25T07:03:48.068Z,26.46
2022-08-25T07:06:18.505Z,26.51
2022-08-25T07:08:46.573Z,26.54
2022-08-25T07:11:16.671Z,26.58
2022-08-25T07:13:45.327Z,26.61
2022-08-25T07:16:12.457Z,26.65
2022-08-25T07:18:39.078Z,26.70
2022-08-25T07:21:05.919Z,26.73
2022-08-25T07:23:36.915Z,26.79
2022-08-25T07:26:33.630Z,26.82
2022-08-25T07:28:58.817Z,26.83
2022-08-25T07:31:29.353Z,26.84
2022-08-25T07:34:15.132Z,26.89
2022-08-25T07:36:43.382Z,26.89
2022-08-25T07:39:10.229Z,26.94
2022-08-25T07:41:39.377Z,27.01
2022-08-25T07:44:06.473Z,27.02
2022-08-25T07:46:34.148Z,27.03
2022-08-25T07:49:00.797Z,27.09
2022-08-25T07:53:58.915Z,27.13
2022-08-25T07:56:28.226Z,27.17
2022-08-25T07:58:54.907Z,27.20
2022-08-25T08:01:24.423Z,27.24
2022-08-25T08:03:52.156Z,27.26
2022-08-25T08:06:22.508Z,27.29
2022-08-25T08:08:50.794Z,27.33
2022-08-25T08:11:27.218Z,27.40
2022-08-25T08:13:55.391Z,27.40
2022-08-25T08:16:25.008Z,27.45
2022-08-25T08:18:52.230Z,27.53
2022-08-25T08:21:28.498Z,27.55
2022-08-25T08:23:59.080Z,27.55
2022-08-25T08:26:36.281Z,27.57
2022-08-25T08:29:08.825Z,27.65
2022-08-25T08:31:36.754Z,27.70
2022-08-25T08:34:03.730Z,27.76
2022-08-25T08:36:30.379Z,27.79
2022-08-25T08:38:56.908Z,27.82
2022-08-25T08:42:11.225Z,27.87
2022-08-25T08:44:44.640Z,27.94
2022-08-25T08:47:32.888Z,28.00
2022-08-25T08:50:23.076Z,28.09
2022-08-25T08:53:10.856Z,28.15
2022-08-25T08:55:42.782Z,28.23
2022-08-25T08:58:26.134Z,28.28
2022-08-25T09:00:56.312Z,28.35
2022-08-25T09:03:39.756Z,28.42
2022-08-25T09:06:20.414Z,28.51
2022-08-25T09:08:47.421Z,28.55
2022-08-25T09:11:27.498Z,28.58
2022-08-25T09:14:38.492Z,28.61
2022-08-25T09:17:22.420Z,28.66
2022-08-25T09:20:26.143Z,28.70
2022-08-25T09:23:21.342Z,28.73
2022-08-25T09:26:08.049Z,28.79
2022-08-25T09:28:41.772Z,28.80
2022-08-25T09:31:24.279Z,28.84
2022-08-25T09:33:59.941Z,28.88
2022-08-25T09:36:27.036Z,28.88
2022-08-25T09:38:53.608Z,28.97
2022-08-25T09:41:42.318Z,29.03
2022-08-25T09:44:26.018Z,29.07
2022-08-25T09:47:15.249Z,29.12
2022-08-25T09:49:47.716Z,29.14
2022-08-25T09:52:31.803Z,29.19
2022-08-25T09:55:25.563Z,29.23
2022-08-25T09:57:57.450Z,29.25
2022-08-25T10:00:34.354Z,29.27
2022-08-25T10:03:22.501Z,29.31
2022-08-25T10:06:03.354Z,29.34
2022-08-25T10:08:45.118Z,29.37
2022-08-25T10:11:15.400Z,29.41
2022-08-25T10:13:46.713Z,29.46
2022-08-25T10:16:32.149Z,29.51
2022-08-25T10:19:02.876Z,29.51
2022-08-25T10:21:29.483Z,29.55
2022-08-25T10:23:56.374Z,29.56
2022-08-25T10:26:51.064Z,29.61
2022-08-25T10:29:32.718Z,29.62
2022-08-25T10:32:13.602Z,29.63
2022-08-25T10:34:54.706Z,29.64
2022-08-25T10:37:46.156Z,29.68
2022-08-25T10:40:28.762Z,29.75
2022-08-25T10:43:23.696Z,29.80
2022-08-25T10:46:14.926Z,29.82
2022-08-25T10:49:19.256Z,29.86
2022-08-25T10:51:51.910Z,29.89
2022-08-25T10:54:31.771Z,29.84
2022-08-25T10:57:17.768Z,29.89
2022-08-25T10:59:59.566Z,29.89
2022-08-25T11:02:50.919Z,29.89
2022-08-25T11:05:28.854Z,29.91
2022-08-25T11:08:06.749Z,29.92
2022-08-25T11:11:02.336Z,29.95
2022-08-25T11:13:30.960Z,29.94
2022-08-25T11:16:17.518Z,29.92
2022-08-25T11:19:05.398Z,29.96
2022-08-25T11:22:00.835Z,30.00
2022-08-25T11:24:32.959Z,30.02
2022-08-25T11:27:06.434Z,30.03
2022-08-25T11:29:37.129Z,30.07
2022-08-25T11:32:06.532Z,30.11
2022-08-25T11:34:36.696Z,30.10
2022-08-25T11:37:27.943Z,30.14
2022-08-25T11:40:59.489Z,30.17
2022-08-25T11:43:46.720Z,30.19
2022-08-25T11:47:05.684Z,30.20
2022-08-25T11:49:56.826Z,30.21
2022-08-25T11:52:32.603Z,30.26
2022-08-25T11:55:10.805Z,30.28
2022-08-25T11:57:38.557Z,30.28
2022-08-25T12:00:09.666Z,30.26
2022-08-25T12:02:51.655Z,30.31
2022-08-25T12:05:24.203Z,30.31
2022-08-25T12:08:13.758Z,30.31
2022-08-25T12:11:11.884Z,30.30
2022-08-25T12:13:50.836Z,30.28
2022-08-25T12:16:35.794Z,30.27
2022-08-25T12:19:30.258Z,30.27
2022-08-25T12:22:19.096Z,30.28
2022-08-25T12:25:21.068Z,30.27
2022-08-25T12:28:09.174Z,30.30
2022-08-25T12:30:58.900Z,30.29
2022-08-25T12:33:40.521Z,30.31
2022-08-25T12:36:11.339Z,30.32
2022-08-25T12:38:52.401Z,30.36
2022-08-25T12:41:26.245Z,30.34
2022-08-25T12:44:09.765Z,30.33
2022-08-25T12:46:39.383Z,30.36
2022-08-25T12:49:15.291Z,30.37
2022-08-25T12:51:50.971Z,30.37
2022-08-25T12:54:25.198Z,30.34
2022-08-25T12:56:57.526Z,30.37
2022-08-25T12:59:43.679Z,30.38
2022-08-25T13:02:27.312Z,30.38
2022-08-25T13:05:26.402Z,30.40
2022-08-25T13:08:33.709Z,30.39
2022-08-25T13:11:11.071Z,30.38
2022-08-25T13:13:56.123Z,30.41
2022-08-25T13:16:29.608Z,30.41
2022-08-25T13:19:01.567Z,30.44
2022-08-25T13:21:30.539Z,30.48
2022-08-25T13:24:05.348Z,30.47
2022-08-25T13:26:37.664Z,30.52
2022-08-25T13:29:21.427Z,30.54
2022-08-25T13:32:00.949Z,30.56
2022-08-25T13:34:42.576Z,30.56
2022-08-25T13:37:31.452Z,30.56
2022-08-25T13:40:16.431Z,30.61
2022-08-25T13:42:54.474Z,30.62
2022-08-25T13:45:29.050Z,30.63
2022-08-25T13:47:59.151Z,30.61
2022-08-25T13:50:26.539Z,30.63
2022-08-25T13:52:57.760Z,30.64
2022-08-25T13:55:51.266Z,30.64
2022-08-25T13:58:24.901Z,30.66
2022-08-25T14:01:22.665Z,30.67
2022-08-25T14:04:21.376Z,30.68
2022-08-25T14:06:49.095Z,30.70
2022-08-25T14:09:26.632Z,30.70
2022-08-25T14:11:58.527Z,30.73
2022-08-25T14:14:24.971Z,30.74
2022-08-25T14:16:58.818Z,30.75
2022-08-25T14:19:26.296Z,30.73
2022-08-25T14:21:56.649Z,30.76
2022-08-25T14:24:23.856Z,30.76
2022-08-25T14:26:54.527Z,30.78
2022-08-25T14:29:22.310Z,30.80
2022-08-25T14:31:49.535Z,30.81
2022-08-25T14:34:26.027Z,30.82
2022-08-25T14:36:55.670Z,30.85
2022-08-25T14:39:22.363Z,30.87
2022-08-25T14:41:53.165Z,30.90
2022-08-25T14:44:21.336Z,30.91
2022-08-25T14:46:54.337Z,30.93
2022-08-25T14:49:25.454Z,30.92
2022-08-25T14:51:52.321Z,30.96
2022-08-25T14:54:21.234Z,30.95
2022-08-25T14:56:48.478Z,31.00
2022-08-25T14:59:15.504Z,31.01
2022-08-25T15:01:42.732Z,31.01
2022-08-25T15:04:17.711Z,31.04
2022-08-25T15:06:45.854Z,31.08
2022-08-25T15:09:16.588Z,31.09
2022-08-25T15:11:50.764Z,31.12
2022-08-25T15:14:28.859Z,31.13
2022-08-25T15:17:01.628Z,31.14
2022-08-25T15:19:29.018Z,31.16
2022-08-25T15:21:58.158Z,31.16
2022-08-25T15:24:27.367Z,31.20
2022-08-25T15:27:03.845Z,31.24
2022-08-25T15:29:34.740Z,31.24
2022-08-25T15:32:03.472Z,31.25
2022-08-25T15:34:30.626Z,31.22
2022-08-25T15:36:59.040Z,31.27
2022-08-25T15:39:25.813Z,31.16
2022-08-25T15:41:52.848Z,31.28
2022-08-25T15:44:20.223Z,31.32
2022-08-25T15:46:50.294Z,31.32
2022-08-25T15:49:20.703Z,31.30
2022-08-25T15:51:52.440Z,31.31
2022-08-25T15:54:20.143Z,31.32
2022-08-25T15:56:47.294Z,31.33
2022-08-25T15:59:14.147Z,31.32
2022-08-25T16:01:41.524Z,31.33
2022-08-25T16:04:08.147Z,31.29
2022-08-25T16:06:34.698Z,31.31
2022-08-25T16:09:02.128Z,31.32
2022-08-25T16:11:31.318Z,31.34
2022-08-25T16:13:57.896Z,31.35
2022-08-25T16:16:26.935Z,31.36
2022-08-25T16:18:54.072Z,31.37
2022-08-25T16:21:29.045Z,31.39
2022-08-25T16:23:59.791Z,31.36
2022-08-25T16:26:30.172Z,31.37
2022-08-25T16:28:56.959Z,31.40
2022-08-25T16:31:24.200Z,31.38
2022-08-25T16:33:54.782Z,31.37
2022-08-25T16:36:25.168Z,31.41
2022-08-25T16:38:54.919Z,31.42
2022-08-25T16:41:25.437Z,31.43
2022-08-25T16:43:52.529Z,31.39
2022-08-25T16:46:21.426Z,31.41
2022-08-25T16:48:50.507Z,31.41
2022-08-25T16:51:22.705Z,31.38
2022-08-25T16:54:17.806Z,31.41
2022-08-25T16:56:54.849Z,31.36
2022-08-25T16:59:22.106Z,31.39
2022-08-25T17:01:51.171Z,31.36
2022-08-25T17:04:17.892Z,31.36
2022-08-25T17:06:51.531Z,31.34
2022-08-25T17:09:24.092Z,31.28
2022-08-25T17:11:54.153Z,31.26
2022-08-25T17:14:21.834Z,31.24
2022-08-25T17:16:50.669Z,31.17
2022-08-25T17:19:18.994Z,31.08
2022-08-25T17:21:46.688Z,31.06
2022-08-25T17:24:14.256Z,30.97
2022-08-25T17:26:42.464Z,30.93
2022-08-25T17:29:09.734Z,30.88
2022-08-25T17:31:39.762Z,30.88
2022-08-25T17:34:09.431Z,30.83
2022-08-25T17:36:36.544Z,30.81
2022-08-25T17:39:04.122Z,30.75
2022-08-25T17:41:31.932Z,30.72
2022-08-25T17:43:58.774Z,30.71
2022-08-25T17:46:26.018Z,30.70
2022-08-25T17:48:53.155Z,30.69
2022-08-25T17:51:20.412Z,30.70
2022-08-25T17:53:49.292Z,30.66
2022-08-25T17:56:18.508Z,30.65
2022-08-25T17:58:47.185Z,30.61
2022-08-25T18:01:25.912Z,30.59
2022-08-25T18:03:54.391Z,30.56
2022-08-25T18:06:23.616Z,30.54
2022-08-25T18:08:51.812Z,30.52
2022-08-25T18:11:24.429Z,30.51
2022-08-25T18:13:53.675Z,30.48
2022-08-25T18:16:20.841Z,30.44
2022-08-25T18:18:48.439Z,30.41
2022-08-25T18:21:17.562Z,30.38
2022-08-25T18:23:44.863Z,30.33
2022-08-25T18:26:13.184Z,30.24
2022-08-25T18:28:40.301Z,30.18
2022-08-25T18:31:11.973Z,30.11
2022-08-25T18:33:42.033Z,29.96
2022-08-25T18:36:09.638Z,29.95
2022-08-25T18:38:58.129Z,29.88
2022-08-25T18:41:26.411Z,29.86
2022-08-25T18:43:53.353Z,29.85
2022-08-25T18:46:22.781Z,29.85
2022-08-25T18:48:52.872Z,29.80
2022-08-25T18:51:23.153Z,29.80
2022-08-25T18:53:51.201Z,29.78
2022-08-25T18:56:22.439Z,29.75
2022-08-25T18:58:49.061Z,29.70
2022-08-25T19:01:18.161Z,29.68
2022-08-25T19:03:45.203Z,29.65
2022-08-25T19:06:11.807Z,29.60
2022-08-25T19:08:41.926Z,29.52
2022-08-25T19:11:09.963Z,29.47
2022-08-25T19:13:38.123Z,29.39
2022-08-25T19:16:17.849Z,29.31
2022-08-25T19:18:48.971Z,29.26
2022-08-25T19:21:22.801Z,29.20
2022-08-25T19:23:50.585Z,29.15
2022-08-25T19:26:17.987Z,29.11
2022-08-25T19:28:49.037Z,29.02
2022-08-25T19:31:20.666Z,28.99
2022-08-25T19:33:49.611Z,28.93
2022-08-25T19:36:17.851Z,28.88
2022-08-25T19:38:48.225Z,28.85
2022-08-25T19:41:19.883Z,28.83
2022-08-25T19:43:55.522Z,28.80
2022-08-25T19:46:33.093Z,28.77
2022-08-25T19:49:23.051Z,28.76
2022-08-25T19:51:51.954Z,28.73
2022-08-25T19:54:24.100Z,28.72
2022-08-25T19:56:54.430Z,28.65
2022-08-25T19:59:40.365Z,28.55
2022-08-25T20:02:12.615Z,28.50
2022-08-25T20:04:42.939Z,28.48
2022-08-25T20:07:16.581Z,28.46
2022-08-25T20:09:43.243Z,28.37
2022-08-25T20:12:11.963Z,28.23
2022-08-25T20:14:39.204Z,28.13
2022-08-25T20:17:23.868Z,28.13
2022-08-25T20:19:57.102Z,28.10
2022-08-25T20:22:26.971Z,28.14
2022-08-25T20:24:57.865Z,28.13
2022-08-25T20:27:33.521Z,28.02
2022-08-25T20:30:02.643Z,28.05
2022-08-25T20:32:29.561Z,28.03
2022-08-25T20:34:56.365Z,28.01
2022-08-25T20:37:23.146Z,27.94
2022-08-25T20:39:51.161Z,27.99
2022-08-25T20:42:18.475Z,27.91
2022-08-25T20:44:46.885Z,27.86
2022-08-25T20:47:14.897Z,27.83
2022-08-25T20:49:43.890Z,27.81
2022-08-25T20:52:11.922Z,27.86
2022-08-25T20:54:38.691Z,27.90
2022-08-25T20:57:05.406Z,27.96
2022-08-25T20:59:34.585Z,28.01
2022-08-25T21:02:02.199Z,28.04
2022-08-25T21:04:30.247Z,28.09
2022-08-25T21:07:00.326Z,28.11
2022-08-25T21:09:28.089Z,28.13
2022-08-25T21:11:56.879Z,28.14
2022-08-25T21:14:24.621Z,28.14
2022-08-25T21:16:54.179Z,28.14
2022-08-25T21:19:26.198Z,28.15
2022-08-25T21:21:54.175Z,28.14
2022-08-25T21:24:26.408Z,28.13
2022-08-25T21:26:55.876Z,28.16
2022-08-25T21:29:24.316Z,28.16
2022-08-25T21:31:50.966Z,28.16
2022-08-25T21:34:18.605Z,28.18
2022-08-25T21:36:46.094Z,28.16
2022-08-25T21:39:14.410Z,28.16
2022-08-25T21:41:45.451Z,28.16
2022-08-25T21:44:13.021Z,28.14
2022-08-25T21:46:41.312Z,28.11
2022-08-25T21:49:08.541Z,28.09
2022-08-25T21:51:39.314Z,28.06
2022-08-25T21:54:10.770Z,28.06
2022-08-25T21:56:52.104Z,28.00
2022-08-25T21:59:26.683Z,28.00
2022-08-25T22:01:58.404Z,27.99
2022-08-25T22:04:26.025Z,27.94
2022-08-25T22:06:52.666Z,27.91
2022-08-25T22:09:19.367Z,27.89
2022-08-25T22:11:46.167Z,27.91
2022-08-25T22:14:13.961Z,27.91
2022-08-25T22:16:41.088Z,27.90
2022-08-25T22:19:09.541Z,27.92
2022-08-25T22:21:36.345Z,27.87
2022-08-25T22:24:03.341Z,27.88
2022-08-25T22:26:31.475Z,27.86
2022-08-25T22:28:59.514Z,27.86
2022-08-25T22:31:27.497Z,27.86
2022-08-25T22:33:55.756Z,27.84
2022-08-25T22:36:33.419Z,27.83
2022-08-25T22:39:00.435Z,27.82
2022-08-25T22:41:29.493Z,27.81
2022-08-25T22:43:56.784Z,27.81
2022-08-25T22:46:26.043Z,27.79
2022-08-25T22:48:55.382Z,27.79
2022-08-25T22:51:25.534Z,27.74
2022-08-25T22:53:52.233Z,27.78
2022-08-25T22:56:29.639Z,27.76
2022-08-25T22:59:02.630Z,27.75
2022-08-25T23:01:29.997Z,27.73
2022-08-25T23:03:56.498Z,27.72
2022-08-25T23:06:25.108Z,27.71
2022-08-25T23:08:54.038Z,27.70
2022-08-25T23:11:23.671Z,27.66
2022-08-25T23:13:50.882Z,27.65
2022-08-25T23:16:18.002Z,27.64
2022-08-25T23:18:46.819Z,27.62
2022-08-25T23:21:37.987Z,27.62
2022-08-25T23:24:10.687Z,27.61
2022-08-25T23:26:38.148Z,27.60
2022-08-25T23:29:18.655Z,27.56
2022-08-25T23:31:47.170Z,27.56
2022-08-25T23:34:15.685Z,27.54
2022-08-25T23:36:43.192Z,27.52
2022-08-25T23:39:11.254Z,27.49
2022-08-25T23:41:37.996Z,27.50
2022-08-25T23:44:11.646Z,27.48
2022-08-25T23:46:38.552Z,27.45
2022-08-25T23:49:08.127Z,27.47
2022-08-25T23:51:37.180Z,27.47
2022-08-25T23:54:09.365Z,27.44
2022-08-25T23:56:44.492Z,27.45
2022-08-25T23:59:13.109Z,27.43
